Time;durP1;ratioP1;P1;durP2;ratioP2;P2;SDS_P1;SDS_P2;PMS_P1;PMS_P2;Temp;Humidity;BMP_temperature;BMP_pressure;BME280_temperature;BME280_humidity;BME280_pressure;Samples;Min_cycle;Max_cycle;Signal;HPM_P1;HPM_P2
2024/03/11 00:00:33;;;;;;;19.57;13.27;;;;;;;8.51;100.00;99764.73;1476216;88;21390;-75
2024/03/11 00:03:01;;;;;;;18.03;12.10;;;;;;;8.48;100.00;99751.84;1476050;88;21316;-75
2024/03/11 00:05:28;;;;;;;21.63;13.67;;;;;;;8.49;100.00;99760.12;1463893;88;21433;-77
2024/03/11 00:07:57;;;;;;;23.03;13.17;;;;;;;8.48;100.00;99759.75;1469891;88;21519;-77
2024/03/11 00:10:25;;;;;;;20.43;13.23;;;;;;;8.48;100.00;99762.89;1471335;88;21316;-75
2024/03/11 00:12:53;;;;;;;21.03;13.50;;;;;;;8.47;100.00;99760.75;1469772;88;21449;-75
2024/03/11 00:15:20;;;;;;;20.70;12.97;;;;;;;8.48;100.00;99767.67;1453009;88;21315;-75
2024/03/11 00:17:48;;;;;;;20.67;14.07;;;;;;;8.50;100.00;99760.45;1467661;88;21331;-75
2024/03/11 00:20:15;;;;;;;19.17;13.57;;;;;;;8.50;100.00;99755.17;1467447;88;23175;-75
2024/03/11 00:22:44;;;;;;;20.40;12.83;;;;;;;8.54;100.00;99755.20;1473368;88;21449;-76
2024/03/11 00:25:11;;;;;;;18.40;11.97;;;;;;;8.54;100.00;99756.52;1474613;88;21353;-76
2024/03/11 00:27:38;;;;;;;18.13;12.47;;;;;;;8.56;100.00;99757.20;1463963;88;22240;-76
2024/03/11 00:30:13;;;;;;;18.00;12.30;;;;;;;8.58;100.00;99761.02;1470242;88;21390;-75
2024/03/11 00:32:49;;;;;;;20.20;13.97;;;;;;;8.59;100.00;99759.53;1464577;88;21398;-76
2024/03/11 00:35:17;;;;;;;16.17;10.73;;;;;;;8.63;100.00;99760.55;1472174;88;21434;-76
2024/03/11 00:37:45;;;;;;;21.37;12.30;;;;;;;8.64;100.00;99767.01;1465369;88;21340;-76
2024/03/11 00:40:13;;;;;;;21.00;12.37;;;;;;;8.66;100.00;99760.24;1471169;88;21475;-75
2024/03/11 00:42:40;;;;;;;18.73;13.00;;;;;;;8.68;100.00;99762.25;1470515;88;21405;-76
2024/03/11 00:45:12;;;;;;;20.37;11.37;;;;;;;8.72;100.00;99754.39;1459375;88;21463;-75
2024/03/11 00:47:41;;;;;;;20.73;11.87;;;;;;;8.71;100.00;99759.31;1472215;88;21434;-75
2024/03/11 00:50:10;;;;;;;16.30;11.23;;;;;;;8.72;100.00;99755.70;1467480;88;21361;-75
2024/03/11 00:52:37;;;;;;;20.17;12.53;;;;;;;8.73;100.00;99760.81;1454340;88;21634;-76
2024/03/11 00:55:09;;;;;;;17.40;11.23;;;;;;;8.76;100.00;99760.51;1474108;88;22277;-76
2024/03/11 00:57:37;;;;;;;20.57;11.70;;;;;;;8.77;100.00;99757.37;1469828;88;21316;-75
2024/03/11 01:00:08;;;;;;;18.07;11.07;;;;;;;8.78;100.00;99756.41;1467709;88;21347;-75
2024/03/11 01:02:35;;;;;;;;;;;;;;;8.78;100.00;99759.05;1475452;88;21442;-75
2024/03/11 01:05:02;;;;;;;15.77;11.10;;;;;;;8.78;100.00;99759.88;1470849;88;20395;-75
2024/03/11 01:07:32;;;;;;;18.63;10.37;;;;;;;8.80;100.00;99756.60;1468441;88;22278;-75
2024/03/11 01:09:58;;;;;;;15.67;10.77;;;;;;;8.80;100.00;99751.80;1467908;88;21374;-75
2024/03/11 01:12:26;;;;;;;13.47;9.87;;;;;;;8.81;100.00;99753.47;1469029;88;21382;-75
2024/03/11 01:14:53;;;;;;;16.20;10.93;;;;;;;8.80;100.00;99744.73;1470977;88;21568;-75
2024/03/11 01:17:20;;;;;;;19.97;12.33;;;;;;;8.82;100.00;99744.56;1475292;88;21354;-75
2024/03/11 01:19:47;;;;;;;15.23;10.83;;;;;;;8.85;100.00;99742.94;1467316;88;21508;-75
2024/03/11 01:22:18;;;;;;;22.03;11.17;;;;;;;8.86;100.00;99738.02;1461555;88;21463;-75
2024/03/11 01:24:45;;;;;;;15.05;10.23;;;;;;;8.87;100.00;99745.44;1467334;88;21435;-75
2024/03/11 01:27:14;;;;;;;19.63;11.13;;;;;;;8.88;100.00;99739.16;1470525;88;21420;-75
2024/03/11 01:29:41;;;;;;;19.10;11.63;;;;;;;8.89;100.00;99735.53;1481387;88;21346;-75
2024/03/11 01:32:11;;;;;;;18.50;11.73;;;;;;;8.89;100.00;99740.34;1475435;88;21524;-75
2024/03/11 01:34:40;;;;;;;16.63;10.60;;;;;;;8.92;100.00;99740.03;1473708;88;21353;-75
2024/03/11 01:37:08;;;;;;;16.70;10.20;;;;;;;8.94;100.00;99738.55;1475122;88;21500;-75
2024/03/11 01:39:44;;;;;;;17.20;11.80;;;;;;;8.94;100.00;99743.33;1468025;88;21590;-75
2024/03/11 01:42:17;;;;;;;15.90;9.23;;;;;;;8.97;100.00;99736.42;1475178;88;21361;-75
2024/03/11 01:44:47;;;;;;;14.93;10.77;;;;;;;8.99;100.00;99737.10;1441579;90;21546;-75
2024/03/11 01:47:17;;;;;;;16.48;10.88;;;;;;;8.99;100.00;99730.50;1444071;90;21471;-75
2024/03/11 01:49:51;;;;;;;15.80;9.43;;;;;;;9.02;100.00;99738.61;1423401;90;21397;-75
2024/03/11 01:52:23;;;;;;;15.87;10.67;;;;;;;9.04;100.00;99740.11;1439242;90;21435;-75
2024/03/11 01:54:52;;;;;;;16.60;9.90;;;;;;;9.06;100.00;99733.34;1443728;90;21854;-75
2024/03/11 01:57:19;;;;;;;16.90;10.27;;;;;;;9.09;100.00;99733.06;1442930;90;21397;-75
2024/03/11 01:59:47;;;;;;;13.13;9.83;;;;;;;9.11;100.00;99728.94;1414557;90;22277;-75
2024/03/11 02:02:14;;;;;;;15.20;9.87;;;;;;;9.14;100.00;99740.50;1472530;88;21539;-75
2024/03/11 02:04:45;;;;;;;15.60;9.93;;;;;;;9.16;100.00;99733.27;1449042;90;21509;-75
2024/03/11 02:07:13;;;;;;;;;;;;;;;9.19;100.00;99731.13;1474209;88;21508;-76
2024/03/11 02:09:42;;;;;;;14.20;10.03;;;;;;;9.21;100.00;99728.35;1464894;88;20409;-75
2024/03/11 02:12:14;;;;;;;14.23;9.97;;;;;;;9.20;100.00;99726.17;1470579;88;22255;-75
2024/03/11 02:14:41;;;;;;;15.60;10.00;;;;;;;9.23;100.00;99731.64;1471702;88;21501;-75
2024/03/11 02:17:09;;;;;;;18.20;9.00;;;;;;;9.23;100.00;99723.72;1457987;88;21368;-75
2024/03/11 02:19:37;;;;;;;15.97;9.50;;;;;;;9.25;100.00;99724.41;1454660;88;21331;-74
2024/03/11 02:22:05;;;;;;;16.43;9.90;;;;;;;9.28;100.00;99738.61;1479387;88;21604;-74
2024/03/11 02:24:32;;;;;;;16.13;11.10;;;;;;;9.31;100.00;99734.34;1472727;88;22981;-75
2024/03/11 02:26:59;;;;;;;16.57;9.87;;;;;;;9.34;100.00;99726.09;1465235;88;21353;-75
2024/03/11 02:29:26;;;;;;;13.80;8.97;;;;;;;9.34;100.00;99723.45;1457145;90;22367;-75
2024/03/11 02:31:55;;;;;;;19.30;9.53;;;;;;;9.38;100.00;99716.04;1443825;90;21369;-75
2024/03/11 02:34:22;;;;;;;14.07;9.87;;;;;;;9.40;100.00;99718.05;1470796;88;21527;-75
2024/03/11 02:36:53;;;;;;;16.90;9.60;;;;;;;9.41;100.00;99707.34;1441258;90;21406;-75
2024/03/11 02:39:20;;;;;;;16.82;9.93;;;;;;;9.42;100.00;99704.20;1419943;91;21347;-75
2024/03/11 02:41:51;;;;;;;13.97;8.87;;;;;;;9.40;100.00;99701.70;1468600;88;21516;-75
2024/03/11 02:44:18;;;;;;;16.35;9.95;;;;;;;9.41;100.00;99705.19;1472573;88;22343;-75
2024/03/11 02:46:45;;;;;;;14.33;9.00;;;;;;;9.44;100.00;99703.05;1472521;88;21531;-76
2024/03/11 02:49:12;;;;;;;15.50;9.20;;;;;;;9.45;100.00;99695.45;1443686;89;21354;-75
2024/03/11 02:51:41;;;;;;;15.33;9.37;;;;;;;9.46;100.00;99706.34;1469493;88;21375;-75
2024/03/11 02:54:11;;;;;;;17.77;9.83;;;;;;;9.48;100.00;99693.00;1472232;88;21352;-75
2024/03/11 02:56:39;;;;;;;13.38;8.00;;;;;;;9.46;100.00;99689.17;1444042;90;21406;-75
2024/03/11 02:59:06;;;;;;;13.93;8.87;;;;;;;9.45;100.00;99686.21;1425387;91;21450;-76
2024/03/11 03:01:33;;;;;;;17.57;9.97;;;;;;;9.45;100.00;99690.17;1450201;88;22933;-76
2024/03/11 03:04:00;;;;;;;15.47;9.27;;;;;;;9.44;100.00;99671.36;1465463;88;21471;-76
2024/03/11 03:06:27;;;;;;;12.63;8.50;;;;;;;9.43;100.00;99680.25;1476926;88;21463;-75
2024/03/11 03:08:55;;;;;;;14.20;9.33;;;;;;;9.44;100.00;99682.42;1447328;90;21420;-75
2024/03/11 03:11:22;;;;;;;14.77;9.30;;;;;;;9.42;100.00;99682.56;1440309;89;21621;-75
2024/03/11 03:13:50;;;;;;;16.57;8.50;;;;;;;9.41;100.00;99681.42;1438316;89;21405;-76
2024/03/11 03:16:18;;;;;;;16.37;8.50;;;;;;;9.37;100.00;99683.53;1471888;88;21338;-75
2024/03/11 03:18:45;;;;;;;12.33;8.40;;;;;;;9.35;100.00;99684.20;1446550;90;22410;-76
2024/03/11 03:21:12;;;;;;;18.30;9.03;;;;;;;9.35;100.00;99676.75;1419745;91;21538;-76
2024/03/11 03:23:41;;;;;;;14.63;8.50;;;;;;;9.33;100.00;99691.45;1478024;88;21502;-75
2024/03/11 03:26:08;;;;;;;14.33;7.90;;;;;;;9.31;100.00;99689.45;1444732;90;21383;-75
2024/03/11 03:28:37;;;;;;;14.40;8.40;;;;;;;9.30;100.00;99689.13;1409552;92;22647;-75
2024/03/11 03:31:05;;;;;;;12.70;8.17;;;;;;;9.30;100.00;99686.48;1470705;88;22358;-75
2024/03/11 03:33:33;;;;;;;18.33;9.93;;;;;;;9.31;100.00;99691.27;1467551;88;21523;-75
2024/03/11 03:36:04;;;;;;;16.63;9.80;;;;;;;9.29;100.00;99694.05;1469731;88;21462;-75
2024/03/11 03:38:31;;;;;;;;;;;;;;;9.28;100.00;99688.44;1449724;90;21362;-75
2024/03/11 03:40:58;;;;;;;14.00;8.07;;;;;;;9.27;100.00;99694.72;1437026;90;20411;-75
2024/03/11 03:43:26;;;;;;;13.67;8.37;;;;;;;9.26;100.00;99699.64;1470012;88;21419;-75
2024/03/11 03:45:53;;;;;;;23.20;9.03;;;;;;;9.26;100.00;99693.04;1472928;88;21375;-75
2024/03/11 03:48:21;;;;;;;17.03;8.60;;;;;;;9.26;100.00;99693.04;1474584;88;22433;-75
2024/03/11 03:50:49;;;;;;;16.37;9.03;;;;;;;9.26;100.00;99699.64;1440565;90;21450;-76
2024/03/11 03:53:16;;;;;;;13.00;8.10;;;;;;;9.23;100.00;99698.14;1473378;88;21884;-76
2024/03/11 03:55:44;;;;;;;17.33;9.47;;;;;;;9.23;100.00;99701.28;1459507;88;22285;-75
2024/03/11 03:58:14;;;;;;;12.63;8.37;;;;;;;9.22;100.00;99690.39;1467558;88;21523;-75
2024/03/11 04:00:42;;;;;;;13.78;9.15;;;;;;;9.22;100.00;99698.31;1446330;90;21488;-75
2024/03/11 04:03:09;;;;;;;14.43;8.93;;;;;;;9.21;100.00;99691.39;1420474;91;21377;-76
2024/03/11 04:05:36;;;;;;;15.20;8.93;;;;;;;9.20;100.00;99692.35;1474184;88;21420;-75
2024/03/11 04:08:04;;;;;;;13.60;8.20;;;;;;;9.19;100.00;99686.25;1471591;88;21404;-76
2024/03/11 04:10:32;;;;;;;11.80;8.10;;;;;;;9.19;100.00;99688.06;1466152;88;21511;-75
2024/03/11 04:13:00;;;;;;;14.53;8.23;;;;;;;9.20;100.00;99687.07;1471696;88;22300;-76
2024/03/11 04:15:29;;;;;;;14.80;8.90;;;;;;;9.19;100.00;99688.06;1436024;90;21490;-75
2024/03/11 04:17:57;;;;;;;11.17;8.00;;;;;;;9.20;100.00;99681.80;1426066;92;21370;-75
2024/03/11 04:20:27;;;;;;;14.47;8.53;;;;;;;9.18;100.00;99683.78;1468376;88;21490;-76
2024/03/11 04:22:55;;;;;;;14.13;8.70;;;;;;;9.18;100.00;99678.50;1461588;88;21457;-76
2024/03/11 04:25:26;;;;;;;18.07;9.73;;;;;;;9.17;100.00;99684.75;1441879;90;22485;-76
2024/03/11 04:27:55;;;;;;;17.37;9.33;;;;;;;9.18;100.00;99681.14;1426960;92;21457;-76
2024/03/11 04:30:39;;;;;;;14.63;8.57;;;;;;;9.18;100.00;99682.46;1460186;88;21390;-76
2024/03/11 04:33:07;;;;;;;14.40;9.53;;;;;;;9.18;100.00;99675.37;1465101;88;21494;-76
2024/03/11 04:35:35;;;;;;;13.90;8.63;;;;;;;9.19;100.00;99679.65;1441590;90;21369;-76
2024/03/11 04:38:08;;;;;;;13.87;8.43;;;;;;;9.21;100.00;99677.69;1434323;89;21513;-76
2024/03/11 04:40:39;;;;;;;14.57;8.97;;;;;;;9.20;100.00;99677.33;1448860;90;21510;-75
2024/03/11 04:43:07;;;;;;;11.20;8.10;;;;;;;9.21;100.00;99679.51;1472599;88;22270;-75
2024/03/11 04:45:40;;;;;;;15.00;9.20;;;;;;;9.21;100.00;99683.47;1451491;88;21501;-75
2024/03/11 04:48:09;;;;;;;12.17;7.53;;;;;;;9.22;100.00;99685.11;1467666;88;21397;-75
2024/03/11 04:50:38;;;;;;;15.47;8.57;;;;;;;9.22;100.00;99687.25;1477320;88;22424;-75
2024/03/11 04:53:07;;;;;;;16.70;10.27;;;;;;;9.21;100.00;99683.47;1443893;90;22299;-75
2024/03/11 04:55:36;;;;;;;16.23;8.67;;;;;;;9.22;100.00;99693.03;1446737;90;21545;-74
2024/03/11 04:58:04;;;;;;;14.83;9.00;;;;;;;9.22;100.00;99690.39;1441077;90;21316;-75
2024/03/11 05:00:31;;;;;;;17.13;9.13;;;;;;;9.22;100.00;99693.86;1441467;90;21419;-75
2024/03/11 05:03:01;;;;;;;14.37;8.87;;;;;;;9.21;100.00;99696.67;1442410;90;21443;-75
2024/03/11 05:05:35;;;;;;;15.43;8.50;;;;;;;9.22;100.00;99701.78;1468727;88;22491;-75
2024/03/11 05:07:58;;;;;;;9.35;6.10;;;;;;;9.20;100.00;99696.31;1470580;88;21426;-76
2024/03/11 05:10:26;;;;;;;14.43;8.90;;;;;;;9.20;100.00;99698.95;1446788;90;21575;-76
2024/03/11 05:12:54;;;;;;;14.73;8.93;;;;;;;9.19;100.00;99708.69;1425419;91;21383;-76
2024/03/11 05:15:21;;;;;;;14.00;8.40;;;;;;;9.20;100.00;99704.23;1469968;88;21604;-76
2024/03/11 05:17:50;;;;;;;14.80;7.53;;;;;;;9.19;100.00;99705.23;1474932;88;22557;-76
2024/03/11 05:20:19;;;;;;;15.77;8.10;;;;;;;9.17;100.00;99700.59;1465656;88;21368;-76
2024/03/11 05:22:48;;;;;;;12.27;8.20;;;;;;;9.18;100.00;99703.09;1472236;88;21471;-76
2024/03/11 05:25:17;;;;;;;12.40;8.97;;;;;;;9.18;100.00;99711.50;1439612;90;22485;-76
2024/03/11 05:27:51;;;;;;;13.90;8.77;;;;;;;9.18;100.00;99718.92;1422084;91;21533;-76
2024/03/11 05:30:18;;;;;;;18.53;9.30;;;;;;;9.17;100.00;99713.29;1470129;88;21390;-76
2024/03/11 05:32:46;;;;;;;12.80;7.50;;;;;;;9.18;100.00;99716.78;1448053;90;21516;-77
2024/03/11 05:35:14;;;;;;;13.50;7.53;;;;;;;9.17;100.00;99713.29;1447901;90;22309;-76
2024/03/11 05:37:41;;;;;;;15.30;9.07;;;;;;;9.18;100.00;99719.42;1473347;88;21353;-76
2024/03/11 05:40:11;;;;;;;14.53;9.60;;;;;;;9.17;100.00;99713.29;1471947;88;21658;-76
2024/03/11 05:42:42;;;;;;;22.70;11.75;;;;;;;9.19;100.00;99720.57;1448604;90;21376;-76
2024/03/11 05:45:12;;;;;;;;;;;;;;;9.20;100.00;99714.80;1420657;90;22603;-76
2024/03/11 05:47:45;;;;;;;28.32;15.58;;;;;;;9.17;100.00;99717.75;1439991;90;20317;-76
2024/03/11 05:50:14;;;;;;;21.67;13.10;;;;;;;9.19;100.00;99720.57;1474027;88;22410;-76
2024/03/11 05:52:44;;;;;;;18.33;11.53;;;;;;;9.19;100.00;99717.11;1466199;88;21353;-76
2024/03/11 05:55:13;;;;;;;13.87;9.43;;;;;;;9.20;100.00;99714.80;1471519;88;21913;-76
2024/03/11 05:57:43;;;;;;;11.80;8.05;;;;;;;9.24;100.00;99718.80;1442477;90;22581;-76
2024/03/11 06:00:15;;;;;;;10.97;7.23;;;;;;;9.26;100.00;99718.13;1439354;90;21355;-76
2024/03/11 06:02:40;;;;;;;16.32;9.30;;;;;;;9.27;100.00;99722.44;1448570;90;21531;-76
2024/03/11 06:05:08;;;;;;;17.23;10.30;;;;;;;9.31;100.00;99712.39;1440412;90;21518;-76
2024/03/11 06:07:37;;;;;;;29.53;16.50;;;;;;;9.33;100.00;99717.85;1443999;90;21353;-76
2024/03/11 06:10:07;;;;;;;43.07;19.43;;;;;;;9.37;100.00;99715.22;1470046;88;21548;-76
2024/03/11 06:12:35;;;;;;;32.97;16.40;;;;;;;9.40;100.00;99724.15;1516204;88;21523;-76
2024/03/11 06:15:02;;;;;;;30.67;16.87;;;;;;;9.41;100.00;99722.36;1468692;88;21808;-76
2024/03/11 06:17:29;;;;;;;22.93;12.17;;;;;;;9.46;100.00;99727.47;1475387;88;21309;-76
2024/03/11 06:19:58;;;;;;;15.37;9.77;;;;;;;9.48;100.00;99715.45;1469989;88;22388;-76
2024/03/11 06:22:27;;;;;;;16.10;9.33;;;;;;;9.49;100.00;99723.23;1464826;88;21360;-76
2024/03/11 06:24:54;;;;;;;14.30;9.67;;;;;;;9.53;100.00;99726.37;1473539;88;21626;-75
2024/03/11 06:27:22;;;;;;;11.33;7.73;;;;;;;9.56;100.00;99721.27;1440058;90;22322;-76
2024/03/11 06:29:49;;;;;;;14.10;7.73;;;;;;;9.57;100.00;99725.56;1392487;92;21458;-76
2024/03/11 06:32:17;;;;;;;12.47;7.67;;;;;;;9.61;100.00;99726.89;1468382;88;21906;-76
2024/03/11 06:34:45;;;;;;;14.23;8.93;;;;;;;9.65;100.00;99724.28;1475099;88;22396;-76
2024/03/11 06:37:12;;;;;;;15.57;9.63;;;;;;;9.67;100.00;99717.85;1459285;88;21565;-76
2024/03/11 06:39:40;;;;;;;14.57;8.97;;;;;;;9.70;100.00;99724.14;1471095;88;21487;-76
2024/03/11 06:42:07;;;;;;;14.77;8.83;;;;;;;9.74;100.00;99729.92;1437219;90;21450;-76
2024/03/11 06:44:35;;;;;;;16.13;9.17;;;;;;;9.79;100.00;99729.46;1427509;91;21553;-76
2024/03/11 06:47:04;;;;;;;17.63;9.77;;;;;;;9.81;100.00;99728.31;1465118;88;21368;-76
2024/03/11 06:49:32;;;;;;;15.33;8.90;;;;;;;9.85;100.00;99727.00;1445112;90;21368;-76
2024/03/11 06:52:00;;;;;;;14.27;8.50;;;;;;;9.89;100.00;99734.11;1430583;91;21523;-76
2024/03/11 06:54:28;;;;;;;14.37;8.83;;;;;;;9.90;100.00;99727.35;1456041;88;21353;-75
2024/03/11 06:56:55;;;;;;;13.23;9.37;;;;;;;9.93;100.00;99740.25;1466610;88;21317;-76
2024/03/11 06:59:22;;;;;;;11.83;7.80;;;;;;;9.97;100.00;99731.99;1448293;90;21398;-75
2024/03/11 07:01:51;;;;;;;13.47;7.73;;;;;;;9.98;100.00;99731.81;1466189;88;21747;-75
2024/03/11 07:04:20;;;;;;;12.53;7.73;;;;;;;9.98;100.00;99725.70;1475062;88;21472;-76
2024/03/11 07:06:48;;;;;;;12.37;8.57;;;;;;;9.99;100.00;99730.03;1461760;88;21419;-76
2024/03/11 07:09:16;;;;;;;14.27;7.80;;;;;;;9.97;100.00;99728.03;1467981;88;21497;-76
2024/03/11 07:11:43;;;;;;;14.07;7.83;;;;;;;9.98;100.00;99720.42;1444243;90;21391;-76
2024/03/11 07:14:13;;;;;;;19.00;10.00;;;;;;;9.98;100.00;99718.59;1443085;90;21547;-76
2024/03/11 07:16:45;;;;;;;20.57;11.50;;;;;;;9.98;100.00;99723.06;1438040;90;21419;-75
2024/03/11 07:19:12;;;;;;;23.27;11.50;;;;;;;9.97;100.00;99722.24;1468764;88;22279;-76
2024/03/11 07:21:39;;;;;;;27.27;12.27;;;;;;;9.98;100.00;99718.59;1471139;88;21361;-75
2024/03/11 07:24:07;;;;;;;25.57;12.47;;;;;;;10.01;100.00;99722.27;1469035;88;21375;-75
2024/03/11 07:26:34;;;;;;;20.37;12.73;;;;;;;10.03;100.00;99726.06;1466330;88;21908;-76
2024/03/11 07:29:01;;;;;;;21.07;11.67;;;;;;;10.03;100.00;99724.23;1465077;88;21383;-75
2024/03/11 07:31:28;;;;;;;21.80;11.30;;;;;;;10.06;100.00;99733.67;1481604;88;21390;-75
2024/03/11 07:33:56;;;;;;;22.73;11.37;;;;;;;10.07;100.00;99722.94;1462068;88;21412;-75
2024/03/11 07:36:24;;;;;;;16.00;9.83;;;;;;;10.12;100.00;99731.20;1469991;88;22795;-75
2024/03/11 07:38:52;;;;;;;12.43;8.90;;;;;;;10.16;100.00;99721.14;1443241;90;22271;-75
2024/03/11 07:41:19;;;;;;;18.93;9.03;;;;;;;10.18;100.00;99735.01;1424142;91;21501;-75
2024/03/11 07:43:46;;;;;;;14.80;8.70;;;;;;;10.17;100.00;99733.37;1461100;88;21390;-75
2024/03/11 07:46:14;;;;;;;15.07;8.80;;;;;;;10.17;100.00;99743.94;1468541;88;21376;-76
2024/03/11 07:48:42;;;;;;;16.43;8.87;;;;;;;10.20;100.00;99755.52;1467211;88;21361;-76
2024/03/11 07:51:09;;;;;;;15.10;9.10;;;;;;;10.13;100.00;99742.63;1463707;88;22422;-76
2024/03/11 07:53:36;;;;;;;14.60;9.10;;;;;;;10.16;100.00;99751.05;1473267;88;21464;-76
2024/03/11 07:56:05;;;;;;;17.43;9.70;;;;;;;10.19;100.00;99757.84;1439380;89;22478;-76
2024/03/11 07:58:34;;;;;;;12.97;8.10;;;;;;;10.16;100.00;99756.34;1521852;89;21363;-76
2024/03/11 08:01:01;;;;;;;14.50;8.30;;;;;;;10.15;100.00;99759.13;1369175;90;21555;-76
2024/03/11 08:03:29;;;;;;;13.53;8.80;;;;;;;10.13;100.00;99751.88;1352376;91;21410;-76
2024/03/11 08:05:58;;;;;;;15.13;8.53;;;;;;;10.13;100.00;99748.73;1393646;88;22205;-77
2024/03/11 08:08:25;;;;;;;18.73;10.37;;;;;;;10.15;100.00;99752.02;1393079;88;21392;-76
2024/03/11 08:10:53;;;;;;;16.23;9.90;;;;;;;10.19;100.00;99747.27;1393956;88;21199;-75
2024/03/11 08:13:21;;;;;;;18.00;10.10;;;;;;;10.23;100.00;99747.27;1376623;90;21274;-76
2024/03/11 08:15:48;;;;;;;13.53;8.60;;;;;;;10.27;100.00;99744.67;1521564;90;22116;-76
2024/03/11 08:18:16;;;;;;;16.07;8.67;;;;;;;10.33;100.00;99742.70;1368051;90;21258;-76
2024/03/11 08:20:43;;;;;;;14.33;8.77;;;;;;;10.38;100.00;99743.02;1368010;90;21391;-76
2024/03/11 08:23:11;;;;;;;9.67;7.27;;;;;;;10.39;100.00;99741.22;1354153;92;21428;-78
2024/03/11 08:25:44;;;;;;;16.43;8.13;;;;;;;10.44;100.00;99742.03;1370328;90;22174;-76
2024/03/11 08:28:10;;;;;;;16.60;9.17;;;;;;;10.46;100.00;99740.06;1515702;90;22212;-76
2024/03/11 08:30:37;;;;;;;15.53;9.17;;;;;;;10.48;100.00;99740.23;1366611;90;22197;-75
2024/03/11 08:33:04;;;;;;;11.97;7.80;;;;;;;10.51;100.00;99741.73;1380523;90;21398;-75
2024/03/11 08:35:31;;;;;;;18.33;10.43;;;;;;;10.50;100.00;99734.30;1357952;91;21325;-76
2024/03/11 08:37:59;;;;;;;19.53;10.10;;;;;;;10.51;100.00;99737.76;1368157;90;21339;-75
2024/03/11 08:40:26;;;;;;;16.80;9.70;;;;;;;10.52;100.00;99739.41;1511340;90;22182;-75
2024/03/11 08:42:56;;;;;;;18.23;9.60;;;;;;;10.56;100.00;99747.36;1348547;92;21294;-76
2024/03/11 08:45:23;;;;;;;16.70;9.17;;;;;;;10.58;100.00;99744.86;1401142;90;21309;-76
2024/03/11 08:47:51;;;;;;;11.10;8.53;;;;;;;10.62;100.00;99745.38;1368390;90;21244;-75
2024/03/11 08:50:21;;;;;;;17.63;8.93;;;;;;;10.64;100.00;99742.05;1367439;90;22265;-76
2024/03/11 08:52:49;;;;;;;15.13;8.70;;;;;;;10.68;100.00;99737.28;1520230;90;21302;-76
2024/03/11 08:55:16;;;;;;;16.73;9.97;;;;;;;10.70;100.00;99730.80;1398363;88;21417;-76
2024/03/11 08:57:49;;;;;;;18.30;8.83;;;;;;;10.73;100.00;99734.47;1393627;88;21236;-75
2024/03/11 09:00:17;;;;;;;13.93;8.70;;;;;;;10.79;100.00;99729.83;1497639;88;21383;-76
2024/03/11 09:02:44;;;;;;;16.40;9.30;;;;;;;10.90;100.00;99723.86;1451333;88;21398;-75
2024/03/11 09:05:18;;;;;;;13.97;8.63;;;;;;;11.03;100.00;99724.19;1476238;88;21383;-76
2024/03/11 09:07:46;;;;;;;15.70;8.53;;;;;;;11.16;100.00;99724.47;1472646;88;22602;-76
2024/03/11 09:10:14;;;;;;;14.57;9.37;;;;;;;11.28;100.00;99727.13;1469162;88;21376;-76
2024/03/11 09:12:42;;;;;;;12.27;8.40;;;;;;;11.41;100.00;99719.13;1447107;90;21353;-77
2024/03/11 09:15:17;;;;;;;14.37;8.70;;;;;;;11.52;100.00;99726.72;1422197;91;21583;-76
2024/03/11 09:17:50;;;;;;;17.00;9.97;;;;;;;11.62;100.00;99733.13;1465417;88;22469;-76
2024/03/11 09:20:19;;;;;;;13.83;8.77;;;;;;;11.71;100.00;99736.11;1470407;88;21419;-76
2024/03/11 09:22:51;;;;;;;;;;;;;;;11.75;100.00;99739.55;1418990;88;22301;-76
2024/03/11 09:25:30;;;;;;;20.83;10.13;;;;;;;11.76;100.00;99739.05;1393882;88;20836;-76
2024/03/11 09:28:00;;;;;;;12.33;8.60;;;;;;;11.74;100.00;99741.88;1548154;88;22168;-76
2024/03/11 09:30:28;;;;;;;12.80;8.07;;;;;;;11.71;100.00;99735.60;1553180;88;21309;-75
2024/03/11 09:32:55;;;;;;;13.50;8.23;;;;;;;11.71;100.00;99730.80;1552855;88;22153;-76
2024/03/11 09:35:22;;;;;;;11.80;7.63;;;;;;;11.79;100.00;99730.74;1392708;88;22295;-76
2024/03/11 09:37:52;;;;;;;12.17;7.53;;;;;;;11.83;100.00;99737.88;1399927;88;21296;-76
2024/03/11 09:40:26;;;;;;;12.87;8.63;;;;;;;11.85;100.00;99742.48;1391633;88;21390;-76
2024/03/11 09:42:55;;;;;;;19.70;8.67;;;;;;;11.91;100.00;99737.84;1474286;88;21853;-76
2024/03/11 09:45:27;;;;;;;11.73;7.53;;;;;;;11.93;100.00;99737.19;1369580;90;21376;-76
2024/03/11 09:48:00;;;;;;;19.67;11.00;;;;;;;11.98;100.00;99738.00;1502767;91;21237;-76
2024/03/11 09:50:33;;;;;;;10.80;8.20;;;;;;;12.01;100.00;99733.67;1502948;91;21288;-76
2024/03/11 09:53:18;;;;;;;15.50;8.10;;;;;;;12.04;100.00;99728.84;1553637;88;21221;-76
2024/03/11 09:55:44;;;;;;;12.93;7.60;;;;;;;12.07;100.00;99724.52;1391191;90;21424;-76
2024/03/11 09:58:15;;;;;;;22.20;9.83;;;;;;;12.13;100.00;99718.51;1393937;88;21302;-76
2024/03/11 10:00:48;;;;;;;13.03;7.83;;;;;;;12.17;100.00;99717.17;1553660;88;22101;-76
2024/03/11 10:03:21;;;;;;;16.27;8.43;;;;;;;12.26;100.00;99714.48;1553628;88;21282;-76
2024/03/11 10:06:03;;;;;;;11.47;7.90;;;;;;;12.32;100.00;99711.11;1397374;88;21280;-76
2024/03/11 10:08:34;;;;;;;12.90;7.65;;;;;;;12.39;100.00;99708.88;1390884;89;21472;-76
2024/03/11 10:11:21;;;;;;;14.80;7.53;;;;;;;12.46;100.00;99707.70;1553507;88;21338;-76
2024/03/11 10:13:52;;;;;;;11.17;7.63;;;;;;;12.51;100.00;99696.02;1553650;88;21199;-76
2024/03/11 10:16:21;;;;;;;16.20;7.80;;;;;;;12.57;100.00;99701.97;1391698;88;21272;-75
2024/03/11 10:19:01;;;;;;;15.20;7.57;;;;;;;12.54;100.00;99700.97;1367630;90;22414;-76
2024/03/11 10:21:28;;;;;;;12.60;8.60;;;;;;;12.52;100.00;99697.69;1523086;90;21370;-76
2024/03/11 10:24:00;;;;;;;19.83;8.13;;;;;;;12.57;100.00;99701.13;1357520;92;21347;-76
2024/03/11 10:26:33;;;;;;;11.97;7.23;;;;;;;12.62;100.00;99696.93;1392078;88;21324;-76
2024/03/11 10:28:58;;;;;;;12.03;7.83;;;;;;;12.70;100.00;99703.19;1551867;88;21323;-76
2024/03/11 10:31:33;;;;;;;14.40;7.43;;;;;;;12.75;100.00;99692.36;1394147;88;21339;-76
2024/03/11 10:34:13;;;;;;;12.07;7.40;;;;;;;12.83;100.00;99691.44;1547368;88;21228;-77
2024/03/11 10:36:44;;;;;;;13.43;8.23;;;;;;;12.88;100.00;99691.73;1392966;88;21258;-76
2024/03/11 10:41:51;;;;;;;14.67;7.77;;;;;;;13.05;100.00;99687.09;1525630;89;21208;-76
2024/03/11 10:44:23;;;;;;;13.27;7.17;;;;;;;13.15;100.00;99679.69;1369899;90;21453;-76
2024/03/11 10:46:51;;;;;;;12.97;7.03;;;;;;;13.25;100.00;99667.45;1502894;92;21415;-76
2024/03/11 10:49:21;;;;;;;16.27;7.40;;;;;;;13.40;100.00;99676.78;1400199;88;22079;-76
2024/03/11 10:51:49;;;;;;;14.40;7.30;;;;;;;13.53;100.00;99665.82;1391546;88;21448;-77
2024/03/11 10:54:28;;;;;;;16.43;7.33;;;;;;;13.67;100.00;99667.33;1394527;88;21249;-76
2024/03/11 10:56:55;;;;;;;12.37;7.33;;;;;;;13.79;100.00;99675.13;1553465;88;21407;-76
2024/03/11 10:59:25;;;;;;;10.83;7.30;;;;;;;13.95;100.00;99678.06;1392677;88;21504;-77
2024/03/11 11:01:58;;;;;;;12.80;7.45;;;;;;;14.06;100.00;99664.27;1419748;88;21575;-76
2024/03/11 11:04:29;;;;;;;12.27;7.20;;;;;;;14.21;100.00;99662.88;1442687;90;22307;-76
2024/03/11 11:07:00;;;;;;;14.70;8.20;;;;;;;14.32;100.00;99657.05;1439198;90;22507;-76
2024/03/11 11:09:29;;;;;;;17.63;7.47;;;;;;;14.42;100.00;99658.91;1464395;88;21294;-76
2024/03/11 11:11:58;;;;;;;12.47;8.00;;;;;;;14.51;100.00;99669.42;1465462;88;21508;-76
2024/03/11 11:14:25;;;;;;;14.60;8.07;;;;;;;14.50;100.00;99649.97;1445552;90;21354;-76
2024/03/11 11:16:52;;;;;;;13.23;7.47;;;;;;;14.55;100.00;99654.73;1441105;89;21590;-76
2024/03/11 11:19:32;;;;;;;18.20;8.97;;;;;;;14.62;100.00;99651.11;1440310;90;21821;-76
2024/03/11 11:21:56;;;;;;;16.47;6.97;;;;;;;14.71;100.00;99637.15;1439203;90;21427;-75
2024/03/11 11:24:32;;;;;;;15.77;7.60;;;;;;;14.76;100.00;99636.06;1439615;90;21508;-76
2024/03/11 11:27:05;;;;;;;20.30;7.60;;;;;;;14.84;100.00;99630.56;1502660;92;21377;-76
2024/03/11 11:29:33;;;;;;;14.87;7.93;;;;;;;14.88;100.00;99625.17;1553363;88;21465;-76
2024/03/11 11:32:08;;;;;;;11.73;7.17;;;;;;;14.91;100.00;99623.15;1370248;90;21278;-76